Time;durP1;ratioP1;P1;durP2;ratioP2;P2;SDS_P1;SDS_P2;PMS_P1;PMS_P2;Temp;Humidity;BMP_temperature;BMP_pressure;BME280_temperature;BME280_humidity;BME280_pressure;Samples;Min_cycle;Max_cycle;Signal;HPM_P1;HPM_P2
2023/03/14 00:02:09;;;;;;;1.55;0.60;;;12.60;66.60;;;;;;4972252;28;20034;-87
2023/03/14 00:04:36;;;;;;;2.42;0.70;;;12.50;66.40;;;;;;4986978;28;20497;-86
2023/03/14 00:07:05;;;;;;;1.38;0.70;;;12.50;66.40;;;;;;4983177;28;20069;-86
2023/03/14 00:09:31;;;;;;;3.55;0.73;;;12.40;66.30;;;;;;4986172;28;20179;-88
2023/03/14 00:11:57;;;;;;;4.25;1.10;;;12.40;66.30;;;;;;4987840;28;20073;-87
2023/03/14 00:14:23;;;;;;;4.07;2.05;;;12.30;66.20;;;;;;4987925;28;20113;-88
2023/03/14 00:16:49;;;;;;;3.78;1.20;;;12.30;66.10;;;;;;4994694;28;20041;-88
2023/03/14 00:19:17;;;;;;;4.70;2.20;;;12.20;65.80;;;;;;4982929;28;20031;-89
2023/03/14 00:21:43;;;;;;;4.38;1.02;;;12.10;65.70;;;;;;4970450;28;20044;-87
2023/03/14 00:24:09;;;;;;;3.83;0.98;;;12.20;66.00;;;;;;4986503;28;20028;-87
2023/03/14 00:26:35;;;;;;;3.22;0.77;;;12.10;65.80;;;;;;4989226;28;20041;-88
2023/03/14 00:29:01;;;;;;;2.90;1.60;;;12.00;65.70;;;;;;4984916;28;20026;-87
2023/03/14 00:31:27;;;;;;;1.92;0.90;;;12.00;65.70;;;;;;4988787;28;20046;-87
2023/03/14 00:33:56;;;;;;;3.67;1.25;;;12.00;65.70;;;;;;4984957;28;20450;-87
2023/03/14 00:36:24;;;;;;;1.73;0.95;;;11.90;65.50;;;;;;4981659;28;20118;-86
2023/03/14 00:38:51;;;;;;;1.83;1.02;;;11.80;65.40;;;;;;4972702;28;20050;-89
2023/03/14 00:41:20;;;;;;;6.03;1.67;;;11.80;65.40;;;;;;4989547;28;20563;-87
2023/03/14 00:43:46;;;;;;;3.45;1.10;;;11.80;65.40;;;;;;4986324;28;20099;-88
2023/03/14 00:46:13;;;;;;;4.63;0.98;;;11.70;65.20;;;;;;4989755;28;20490;-86
2023/03/14 00:48:39;;;;;;;1.65;1.10;;;11.70;65.30;;;;;;4988008;28;20401;-85
2023/03/14 00:51:07;;;;;;;2.17;0.82;;;11.60;65.10;;;;;;4988550;28;20548;-86
2023/03/14 00:53:38;;;;;;;3.97;0.88;;;11.60;65.20;;;;;;4991687;28;20042;-86
2023/03/14 00:56:06;;;;;;;3.67;1.00;;;11.60;65.10;;;;;;4989649;28;20048;-86
2023/03/14 00:58:32;;;;;;;3.05;0.80;;;11.50;65.00;;;;;;4994527;28;20433;-89
2023/03/14 01:00:58;;;;;;;4.15;1.42;;;11.50;65.00;;;;;;4992519;28;20074;-88
2023/03/14 01:03:25;;;;;;;5.55;1.27;;;11.40;64.90;;;;;;4993259;28;20513;-88
2023/03/14 01:05:51;;;;;;;4.40;1.17;;;11.40;64.90;;;;;;4986332;28;20273;-89
2023/03/14 01:08:17;;;;;;;3.78;2.55;;;11.40;64.90;;;;;;4985621;28;20042;-89
2023/03/14 01:10:43;;;;;;;1.85;0.80;;;11.30;64.80;;;;;;4996353;28;20137;-89
2023/03/14 01:13:09;;;;;;;2.90;0.82;;;11.30;64.80;;;;;;4989738;28;20070;-88
2023/03/14 01:15:37;;;;;;;4.07;1.73;;;11.20;64.70;;;;;;4988836;28;20467;-88
2023/03/14 01:18:03;;;;;;;2.90;1.23;;;11.20;64.70;;;;;;4988951;28;20046;-87
2023/03/14 01:20:29;;;;;;;2.05;0.93;;;11.20;64.70;;;;;;4974615;28;20046;-88
2023/03/14 01:22:55;;;;;;;4.70;1.00;;;11.10;64.60;;;;;;4987559;28;20046;-88
2023/03/14 01:25:21;;;;;;;4.57;1.42;;;11.10;64.60;;;;;;4990448;28;20092;-88
2023/03/14 01:27:48;;;;;;;2.25;0.80;;;11.10;64.70;;;;;;4991315;28;20116;-87
2023/03/14 01:30:14;;;;;;;5.15;1.15;;;11.10;64.70;;;;;;4986651;28;20442;-87
2023/03/14 01:32:40;;;;;;;4.60;1.25;;;11.00;64.60;;;;;;4988475;28;20089;-87
2023/03/14 01:35:06;;;;;;;3.47;0.90;;;11.00;64.60;;;;;;4973110;28;20484;-88
2023/03/14 01:37:35;;;;;;;3.80;1.23;;;11.00;64.60;;;;;;4971818;28;20034;-87
2023/03/14 01:40:03;;;;;;;10.77;2.35;;;11.00;64.60;;;;;;4965780;28;20281;-87
2023/03/14 01:42:29;;;;;;;3.28;1.17;;;10.90;64.40;;;;;;4971889;28;20046;-87
2023/03/14 01:44:58;;;;;;;2.97;1.48;;;10.90;64.40;;;;;;4988933;28;20045;-86
2023/03/14 01:47:25;;;;;;;5.30;1.10;;;10.80;64.30;;;;;;4988672;28;20054;-89
2023/03/14 01:50:03;;;;;;;3.22;0.80;;;10.80;64.40;;;;;;4986948;28;20536;-88
2023/03/14 01:52:41;;;;;;;4.22;0.88;;;10.80;64.50;;;;;;4987274;28;20045;-89
2023/03/14 01:55:19;;;;;;;6.28;2.53;;;10.80;64.50;;;;;;4983227;28;20066;-87
2023/03/14 01:57:49;;;;;;;5.28;1.00;;;10.70;64.30;;;;;;4984104;28;20042;-88
2023/03/14 02:00:18;;;;;;;5.47;2.38;;;10.70;64.30;;;;;;4973825;28;20473;-88
2023/03/14 02:02:56;;;;;;;3.45;1.15;;;10.70;64.30;;;;;;4970153;28;20050;-88
2023/03/14 02:05:28;;;;;;;5.57;1.20;;;10.70;64.40;;;;;;4989044;28;20046;-86
2023/03/14 02:08:17;;;;;;;5.53;1.67;;;10.60;64.20;;;;;;4987675;28;20382;-85
2023/03/14 02:10:49;;;;;;;3.30;1.25;;;10.60;64.80;;;;;;4983926;28;20034;-86
2023/03/14 02:13:20;;;;;;;4.85;1.20;;;10.60;64.30;;;;;;4987740;28;20048;-87
2023/03/14 02:15:46;;;;;;;5.03;1.88;;;10.50;64.10;;;;;;4982990;28;20105;-85
2023/03/14 02:18:21;;;;;;;6.78;1.65;;;10.50;64.10;;;;;;4987583;28;20125;-86
2023/03/14 02:21:12;;;;;;;4.40;1.80;;;10.50;64.70;;;;;;4984353;28;20163;-85
2023/03/14 02:23:57;;;;;;;4.93;1.10;;;10.40;64.00;;;;;;4991097;28;20266;-85
2023/03/14 02:27:04;;;;;;;3.97;1.23;;;10.40;64.10;;;;;;4981797;28;20039;-87
2023/03/14 02:29:33;;;;;;;5.32;1.30;;;10.40;64.10;;;;;;4966184;28;20046;-87
2023/03/14 02:32:00;;;;;;;3.80;1.00;;;10.30;63.90;;;;;;4988297;28;20030;-89
2023/03/14 02:34:26;;;;;;;3.58;1.13;;;10.30;63.90;;;;;;4990844;28;20031;-89
2023/03/14 02:36:53;;;;;;;5.43;1.40;;;10.30;63.90;;;;;;4987471;28;20038;-88
2023/03/14 02:39:34;;;;;;;3.25;1.20;;;10.30;63.90;;;;;;4986757;28;20050;-89
2023/03/14 02:42:00;;;;;;;4.18;1.45;;;10.20;63.80;;;;;;4987747;28;20501;-88
2023/03/14 02:44:27;;;;;;;5.57;2.15;;;10.20;63.80;;;;;;4993587;28;20053;-88
2023/03/14 02:46:54;;;;;;;4.22;1.00;;;10.20;63.80;;;;;;4972514;28;20048;-89
2023/03/14 02:49:21;;;;;;;5.32;1.38;;;10.20;63.90;;;;;;4991533;28;20043;-88
2023/03/14 02:51:47;;;;;;;5.03;1.20;;;10.10;63.70;;;;;;4990190;28;20439;-88
2023/03/14 02:54:15;;;;;;;4.88;1.15;;;10.10;63.70;;;;;;4973063;28;20030;-88
2023/03/14 02:56:42;;;;;;;5.53;1.25;;;10.10;63.70;;;;;;4994461;28;20045;-90
2023/03/14 02:59:11;;;;;;;7.43;2.30;;;10.10;63.80;;;;;;4984881;28;20375;-89
2023/03/14 03:02:03;;;;;;;5.07;1.48;;;10.00;63.60;;;;;;4988016;28;20054;-89
2023/03/14 03:04:31;;;;;;;5.78;1.42;;;10.00;63.60;;;;;;4989629;28;20080;-86
2023/03/14 03:06:57;;;;;;;8.10;1.55;;;10.00;63.60;;;;;;4988692;28;20030;-85
2023/03/14 03:09:23;;;;;;;6.38;1.20;;;10.00;63.50;;;;;;4989822;28;20092;-84
2023/03/14 03:11:51;;;;;;;4.80;1.10;;;10.10;63.70;;;;;;4979299;28;20061;-86
2023/03/14 03:14:21;;;;;;;6.03;1.30;;;10.00;63.50;;;;;;4990042;28;20022;-86
2023/03/14 03:16:47;;;;;;;5.03;1.90;;;10.00;63.50;;;;;;4955828;28;20393;-88
2023/03/14 03:19:14;;;;;;;5.47;1.70;;;10.10;63.60;;;;;;4992239;28;20027;-86
2023/03/14 03:21:40;;;;;;;2.60;1.00;;;10.10;63.60;;;;;;4989971;28;20033;-87
2023/03/14 03:24:06;;;;;;;3.35;0.90;;;10.10;63.60;;;;;;4992538;28;20109;-87
2023/03/14 03:26:37;;;;;;;5.25;1.48;;;10.10;63.50;;;;;;4989442;28;20497;-87
2023/03/14 03:29:05;;;;;;;5.43;1.33;;;10.00;63.30;;;;;;4989745;28;20471;-87
2023/03/14 03:31:31;;;;;;;5.78;1.48;;;10.00;63.30;;;;;;4983117;28;20041;-88
2023/03/14 03:33:58;;;;;;;4.85;1.60;;;10.00;63.80;;;;;;4991494;28;20106;-88
2023/03/14 03:36:26;;;;;;;5.20;1.25;;;10.00;63.30;;;;;;4995325;28;20105;-90
2023/03/14 03:38:52;;;;;;;4.72;1.30;;;10.00;63.30;;;;;;4997889;28;20042;-86
2023/03/14 03:41:18;;;;;;;2.72;1.13;;;10.10;63.40;;;;;;4992580;28;20064;-86
2023/03/14 03:43:47;;;;;;;3.22;0.80;;;10.00;63.20;;;;;;5001998;28;20057;-84
2023/03/14 03:46:16;;;;;;;4.22;1.00;;;10.00;63.20;;;;;;5008662;28;20036;-84
2023/03/14 03:48:42;;;;;;;3.92;1.27;;;10.00;63.20;;;;;;5007749;28;20497;-85
2023/03/14 03:51:12;;;;;;;3.50;1.25;;;10.00;63.20;;;;;;5000796;28;20046;-85
2023/03/14 03:53:39;;;;;;;3.92;1.10;;;10.00;63.10;;;;;;5014124;28;20070;-86
2023/03/14 03:56:09;;;;;;;4.85;1.17;;;10.10;63.30;;;;;;5011036;28;20053;-87
2023/03/14 03:58:37;;;;;;;3.28;1.45;;;10.10;63.30;;;;;;5007890;28;20074;-87
2023/03/14 04:01:03;;;;;;;8.32;1.80;;;10.00;63.00;;;;;;5002932;28;20062;-88
2023/03/14 04:03:29;;;;;;;8.25;1.58;;;10.00;63.00;;;;;;4995272;28;20061;-87
2023/03/14 04:06:05;;;;;;;3.88;1.00;;;10.10;63.10;;;;;;4988544;28;20045;-89
2023/03/14 04:08:33;;;;;;;3.70;1.33;;;10.10;63.10;;;;;;5006630;28;20678;-88
2023/03/14 04:11:01;;;;;;;2.78;1.25;;;10.00;62.90;;;;;;5004388;28;20052;-87
2023/03/14 04:13:45;;;;;;;3.13;1.35;;;10.00;62.90;;;;;;5004113;28;20014;-86
2023/03/14 04:16:18;;;;;;;4.97;1.27;;;10.00;62.80;;;;;;5010886;28;20034;-87
2023/03/14 04:18:44;;;;;;;3.88;0.77;;;10.00;62.80;;;;;;4998615;28;20097;-88
2023/03/14 04:21:10;;;;;;;3.13;1.00;;;9.90;62.60;;;;;;5005410;28;20067;-88
2023/03/14 04:23:44;;;;;;;3.13;1.35;;;9.90;62.60;;;;;;5007049;28;20070;-91
2023/03/14 04:26:10;;;;;;;3.08;1.17;;;9.90;62.60;;;;;;4998469;28;20042;-86
2023/03/14 04:28:38;;;;;;;3.13;1.08;;;9.90;62.70;;;;;;4993413;28;20069;-85
2023/03/14 04:31:09;;;;;;;6.22;1.35;;;9.90;62.70;;;;;;4992613;28;20041;-85
2023/03/14 04:33:36;;;;;;;3.42;1.33;;;9.80;62.60;;;;;;4991667;28;20125;-85
2023/03/14 04:36:04;;;;;;;8.30;2.10;;;9.80;62.60;;;;;;4974946;28;20034;-85
2023/03/14 04:38:31;;;;;;;4.78;1.52;;;9.70;62.40;;;;;;4991705;28;20037;-86
2023/03/14 04:40:57;;;;;;;4.05;1.52;;;9.70;62.50;;;;;;4991431;28;20045;-85
2023/03/14 04:43:29;;;;;;;3.13;1.10;;;9.60;62.30;;;;;;4961327;28;20034;-86
2023/03/14 04:46:02;;;;;;;3.40;1.33;;;9.60;62.40;;;;;;4976117;28;20077;-86
2023/03/14 04:48:28;;;;;;;4.78;1.25;;;9.50;62.30;;;;;;4989102;28;20057;-85
2023/03/14 04:50:55;;;;;;;4.38;1.33;;;9.50;62.30;;;;;;4974566;28;20041;-86
2023/03/14 04:53:21;;;;;;;3.50;1.20;;;9.50;62.30;;;;;;4992640;28;20407;-86
2023/03/14 04:55:55;;;;;;;5.25;1.40;;;9.50;62.90;;;;;;4983607;28;20047;-85
2023/03/14 04:58:24;;;;;;;3.58;1.50;;;9.50;62.40;;;;;;4991442;28;20085;-88
2023/03/14 05:00:51;;;;;;;5.47;1.10;;;9.40;62.20;;;;;;4971254;28;20167;-85
2023/03/14 05:03:39;;;;;;;5.13;2.10;;;9.40;62.20;;;;;;4976716;28;20391;-88
2023/03/14 05:06:21;;;;;;;7.90;1.50;;;9.40;62.20;;;;;;4990287;28;20061;-88
2023/03/14 05:08:49;;;;;;;4.28;1.23;;;9.40;62.20;;;;;;4985470;28;20413;-89
2023/03/14 05:11:38;;;;;;;5.28;1.20;;;9.40;62.20;;;;;;4988446;28;20046;-89
2023/03/14 05:14:27;;;;;;;6.70;1.65;;;9.30;62.00;;;;;;4992398;28;20416;-84
2023/03/14 05:17:21;;;;;;;6.53;2.25;;;9.30;62.00;;;;;;4992553;28;20038;-85
2023/03/14 05:20:13;;;;;;;5.57;1.30;;;9.20;61.90;;;;;;4967623;28;20051;-87
2023/03/14 05:23:03;;;;;;;4.47;1.33;;;9.20;61.90;;;;;;4989149;28;20069;-89
2023/03/14 05:25:58;;;;;;;6.82;1.52;;;9.20;62.00;;;;;;4983852;28;20043;-90
2023/03/14 05:28:32;;;;;;;5.03;1.00;;;9.10;61.80;;;;;;4995767;28;20031;-84
2023/03/14 05:31:18;;;;;;;4.07;1.88;;;9.10;61.90;;;;;;4998020;28;20465;-82
2023/03/14 05:33:50;;;;;;;4.72;2.13;;;9.10;61.90;;;;;;4990937;28;20030;-81
2023/03/14 05:36:38;;;;;;;4.75;1.23;;;9.00;61.70;;;;;;4988089;28;20737;-82
2023/03/14 05:39:34;;;;;;;3.47;1.35;;;9.00;61.80;;;;;;4989751;28;20041;-81
2023/03/14 05:42:28;;;;;;;4.90;1.13;;;9.00;61.80;;;;;;4986160;28;20793;-80
2023/03/14 05:45:14;;;;;;;5.03;1.27;;;9.00;61.90;;;;;;4981678;28;20049;-83
2023/03/14 05:48:05;;;;;;;4.10;1.20;;;9.00;61.90;;;;;;4982587;28;20062;-83
2023/03/14 05:50:59;;;;;;;2.83;1.10;;;8.90;61.70;;;;;;4990546;28;20068;-82
2023/03/14 05:53:57;;;;;;;4.82;1.30;;;8.90;61.80;;;;;;4991196;28;20121;-83
2023/03/14 05:56:32;;;;;;;7.43;1.63;;;8.90;61.80;;;;;;4996874;28;20034;-82
2023/03/14 05:59:04;;;;;;;6.88;1.88;;;8.90;61.80;;;;;;5000619;28;20567;-83
2023/03/14 06:01:42;;;;;;;8.75;1.33;;;8.90;61.90;;;;;;4994641;28;20061;-83
2023/03/14 06:04:13;;;;;;;6.05;1.70;;;8.80;61.70;;;;;;4997838;28;20038;-83
2023/03/14 06:06:40;;;;;;;3.00;2.10;;;8.80;61.70;;;;;;4993519;28;20104;-84
2023/03/14 06:09:07;;;;;;;6.25;1.25;;;8.80;61.70;;;;;;4992718;28;20053;-82
2023/03/14 06:11:37;;;;;;;5.53;1.27;;;8.80;61.80;;;;;;4984455;28;20041;-80
2023/03/14 06:14:04;;;;;;;3.65;1.52;;;8.80;61.80;;;;;;4985285;28;20049;-83
2023/03/14 06:16:31;;;;;;;2.78;1.30;;;8.80;61.80;;;;;;4997256;28;20033;-84
2023/03/14 06:18:58;;;;;;;6.78;1.27;;;8.70;61.70;;;;;;4995910;28;20034;-84
2023/03/14 06:21:25;;;;;;;4.57;1.27;;;8.70;61.70;;;;;;4990167;28;20097;-88
2023/03/14 06:23:51;;;;;;;6.55;1.55;;;8.70;61.70;;;;;;4990587;28;20031;-81
2023/03/14 06:26:21;;;;;;;4.22;1.08;;;8.70;61.70;;;;;;4974459;28;20034;-85
2023/03/14 06:28:49;;;;;;;4.30;1.00;;;8.70;62.30;;;;;;4998033;28;20030;-83
2023/03/14 06:31:15;;;;;;;4.03;1.30;;;8.60;61.60;;;;;;4988723;28;20038;-81
2023/03/14 06:33:50;;;;;;;5.93;1.40;;;8.70;61.80;;;;;;4998758;28;20053;-85
2023/03/14 06:36:18;;;;;;;6.68;1.50;;;8.60;61.60;;;;;;4998397;28;20861;-83
2023/03/14 06:38:46;;;;;;;3.70;1.00;;;8.60;61.70;;;;;;4982700;28;20085;-81
2023/03/14 06:41:12;;;;;;;5.35;1.40;;;8.60;61.70;;;;;;4985467;28;20065;-82
2023/03/14 06:43:41;;;;;;;4.60;1.48;;;8.60;61.70;;;;;;4987718;28;20486;-84
2023/03/14 06:46:08;;;;;;;5.53;1.10;;;8.60;61.70;;;;;;4996535;28;20048;-86
2023/03/14 06:48:38;;;;;;;5.80;1.77;;;8.50;62.00;;;;;;4973641;28;20063;-84
2023/03/14 06:51:06;;;;;;;7.40;2.40;;;8.60;61.60;;;;;;4991187;28;20049;-85
2023/03/14 06:53:33;;;;;;;5.07;1.60;;;8.60;61.40;;;;;;4989385;28;20050;-82
2023/03/14 06:56:00;;;;;;;11.77;2.05;;;8.50;61.00;;;;;;4985564;28;20038;-81
2023/03/14 06:58:29;;;;;;;5.20;1.33;;;8.60;60.90;;;;;;4989107;28;20039;-85
2023/03/14 07:00:54;;;;;;;3.60;1.35;;;8.50;60.60;;;;;;4988021;28;20319;-84
2023/03/14 07:03:25;;;;;;;4.18;1.17;;;8.50;60.50;;;;;;4987617;28;20045;-82
2023/03/14 07:05:54;;;;;;;11.85;1.80;;;8.50;60.40;;;;;;4992084;28;20549;-82
2023/03/14 07:08:20;;;;;;;5.55;1.40;;;8.40;60.10;;;;;;4989857;28;20041;-85
2023/03/14 07:10:45;;;;;;;6.03;1.88;;;8.40;60.00;;;;;;4991401;28;20406;-86
2023/03/14 07:13:12;;;;;;;7.55;1.85;;;8.40;59.80;;;;;;4973143;28;20113;-82
2023/03/14 07:15:48;;;;;;;4.88;2.05;;;8.40;59.80;;;;;;4983423;28;20041;-87
2023/03/14 07:18:15;;;;;;;7.00;1.80;;;8.40;60.50;;;;;;4971230;28;20756;-88
2023/03/14 07:20:41;;;;;;;5.68;2.10;;;8.60;61.70;;;;;;4981398;28;20033;-89
2023/03/14 07:23:07;;;;;;;12.07;2.00;;;8.90;62.40;;;;;;4982454;28;20034;-90
2023/03/14 07:25:41;;;;;;;4.32;2.55;;;9.10;62.60;;;;;;4971950;28;20121;-87
2023/03/14 07:28:08;;;;;;;2.88;1.27;;;9.20;62.60;;;;;;4983746;28;20402;-87
2023/03/14 07:30:36;;;;;;;5.70;2.00;;;9.30;62.50;;;;;;4989208;28;20031;-81
2023/03/14 07:33:06;;;;;;;4.93;1.30;;;9.30;62.40;;;;;;4988180;28;20049;-87
2023/03/14 07:35:32;;;;;;;5.70;1.13;;;9.40;62.40;;;;;;4982788;28;20049;-84
2023/03/14 07:37:58;;;;;;;5.95;1.33;;;9.40;62.30;;;;;;4983736;28;20030;-85
2023/03/14 07:40:32;;;;;;;4.57;1.13;;;9.40;62.20;;;;;;4984162;28;20042;-86
2023/03/14 07:42:58;;;;;;;5.72;1.58;;;9.50;62.30;;;;;;4986662;28;20442;-85
2023/03/14 07:45:28;;;;;;;5.95;1.10;;;9.50;62.20;;;;;;4966903;28;20038;-85
2023/03/14 07:47:57;;;;;;;5.95;1.75;;;9.50;62.00;;;;;;4984876;28;20050;-86
2023/03/14 07:50:27;;;;;;;4.47;1.10;;;9.50;61.90;;;;;;4987759;28;20045;-86
2023/03/14 07:52:54;;;;;;;4.22;1.52;;;9.50;61.80;;;;;;4984473;28;20038;-85
2023/03/14 07:55:19;;;;;;;1.60;0.85;;;9.60;61.80;;;;;;4979492;28;20026;-86
2023/03/14 07:57:48;;;;;;;4.95;0.70;;;9.60;61.60;;;;;;4986398;28;20390;-85
2023/03/14 08:00:15;;;;;;;2.47;1.00;;;9.70;61.60;;;;;;4983192;28;20045;-84
2023/03/14 08:02:41;;;;;;;2.75;0.90;;;9.70;61.40;;;;;;4985941;28;20050;-83
2023/03/14 08:05:07;;;;;;;4.47;1.20;;;9.80;61.40;;;;;;4985596;28;20026;-83
2023/03/14 08:07:33;;;;;;;4.65;1.58;;;9.90;61.30;;;;;;4986536;28;20038;-88
2023/03/14 08:10:00;;;;;;;3.70;1.05;;;10.00;61.20;;;;;;4990099;28;20098;-87
2023/03/14 08:12:26;;;;;;;5.95;1.20;;;10.00;61.00;;;;;;4985462;28;20054;-84
2023/03/14 08:14:52;;;;;;;2.10;0.90;;;10.10;61.00;;;;;;4985114;28;20026;-87
2023/03/14 08:17:18;;;;;;;2.95;1.25;;;10.10;60.90;;;;;;4988138;28;20509;-87
2023/03/14 08:19:45;;;;;;;3.42;0.90;;;10.10;60.80;;;;;;4985795;28;20034;-86
2023/03/14 08:22:12;;;;;;;5.93;0.95;;;10.10;60.70;;;;;;4983006;28;20545;-87
2023/03/14 08:24:39;;;;;;;5.93;1.17;;;10.20;60.70;;;;;;4984198;28;20065;-87
2023/03/14 08:27:05;;;;;;;3.38;1.13;;;10.20;60.60;;;;;;4983481;28;20045;-88
2023/03/14 08:29:31;;;;;;;3.63;1.27;;;10.20;60.50;;;;;;4991279;28;20084;-86
2023/03/14 08:31:57;;;;;;;3.83;0.93;;;10.30;60.50;;;;;;4984293;28;20496;-88
2023/03/14 08:34:23;;;;;;;3.05;0.82;;;10.30;60.30;;;;;;4966799;28;20039;-83
2023/03/14 08:36:50;;;;;;;2.80;0.90;;;10.40;60.30;;;;;;4985036;28;20125;-87
2023/03/14 08:39:16;;;;;;;3.75;1.08;;;10.40;60.20;;;;;;4983410;28;20039;-82
2023/03/14 08:41:43;;;;;;;3.25;0.98;;;10.40;60.10;;;;;;4981754;28;20069;-86
2023/03/14 08:44:11;;;;;;;2.00;0.70;;;10.50;60.20;;;;;;4985495;28;20138;-84
2023/03/14 08:46:37;;;;;;;2.75;0.70;;;10.60;60.10;;;;;;4984007;28;20186;-85
2023/03/14 08:49:03;;;;;;;3.28;0.85;;;10.80;60.30;;;;;;4985036;28;20109;-84
2023/03/14 08:51:29;;;;;;;2.63;0.70;;;10.80;59.90;;;;;;4980105;28;20049;-85
2023/03/14 08:53:55;;;;;;;3.70;0.98;;;11.00;60.00;;;;;;4965830;28;20038;-83
2023/03/14 08:56:21;;;;;;;2.00;1.20;;;11.00;59.80;;;;;;4981917;28;20556;-87
2023/03/14 08:58:47;;;;;;;2.22;0.80;;;11.10;59.70;;;;;;4985185;28;20038;-82
2023/03/14 09:01:13;;;;;;;2.58;0.60;;;11.20;59.70;;;;;;4985467;28;20092;-83
2023/03/14 09:03:39;;;;;;;3.40;0.80;;;11.20;59.60;;;;;;4987132;28;20088;-84
2023/03/14 09:06:07;;;;;;;1.40;0.75;;;11.20;59.50;;;;;;4985844;28;20684;-83
2023/03/14 09:08:34;;;;;;;2.42;0.60;;;11.20;59.40;;;;;;4985842;28;20037;-83
2023/03/14 09:11:00;;;;;;;3.10;1.00;;;11.20;59.40;;;;;;4986727;28;20190;-83
2023/03/14 09:13:26;;;;;;;3.30;0.77;;;11.20;59.30;;;;;;4984331;28;20038;-87
2023/03/14 09:15:53;;;;;;;2.25;0.60;;;11.20;59.20;;;;;;4986585;28;20034;-87
2023/03/14 09:18:19;;;;;;;2.17;0.63;;;11.30;59.30;;;;;;4983989;28;20034;-86
2023/03/14 09:20:48;;;;;;;0.80;0.60;;;11.30;59.10;;;;;;4984488;28;20036;-88
2023/03/14 09:23:14;;;;;;;3.50;0.70;;;11.30;59.00;;;;;;4985621;28;20070;-87
2023/03/14 09:25:41;;;;;;;2.35;0.82;;;11.40;59.00;;;;;;4987850;28;20034;-87
2023/03/14 09:28:07;;;;;;;1.52;0.60;;;11.40;58.90;;;;;;4988484;28;20127;-85
2023/03/14 09:30:33;;;;;;;0.93;0.57;;;11.50;58.90;;;;;;4990841;28;20445;-87
2023/03/14 09:32:59;;;;;;;1.95;0.60;;;11.60;59.00;;;;;;4989541;28;20066;-89
2023/03/14 09:35:26;;;;;;;1.45;0.52;;;11.70;58.80;;;;;;4985874;28;20286;-88
2023/03/14 09:37:52;;;;;;;0.93;0.70;;;11.80;58.70;;;;;;4993664;28;20038;-87
2023/03/14 09:40:20;;;;;;;1.60;0.70;;;11.90;58.50;;;;;;4994915;28;20026;-86
2023/03/14 09:42:49;;;;;;;1.27;0.77;;;12.00;58.40;;;;;;4986069;28;20050;-84
2023/03/14 09:45:26;;;;;;;0.85;0.65;;;12.10;58.30;;;;;;4985154;28;20057;-87
2023/03/14 09:47:53;;;;;;;0.75;0.70;;;12.20;58.20;;;;;;4983622;28;20304;-86
2023/03/14 09:50:19;;;;;;;1.35;0.65;;;12.20;58.00;;;;;;4984455;28;20348;-84
2023/03/14 09:52:49;;;;;;;1.17;0.65;;;12.20;57.80;;;;;;4986978;28;20035;-84
2023/03/14 09:55:21;;;;;;;0.93;0.40;;;12.20;57.70;;;;;;4985122;28;20105;-85
2023/03/14 09:57:50;;;;;;;1.60;0.60;;;12.20;57.60;;;;;;4989046;28;20035;-84
2023/03/14 10:00:17;;;;;;;0.82;0.60;;;12.30;57.60;;;;;;4991242;28;20100;-84
2023/03/14 10:03:08;;;;;;;1.35;0.65;;;12.30;57.50;;;;;;4991367;28;20077;-85
2023/03/14 10:05:34;;;;;;;0.65;0.47;;;12.30;57.30;;;;;;4997642;28;20086;-84
2023/03/14 10:08:00;;;;;;;1.58;0.50;;;12.30;57.30;;;;;;5009523;28;20042;-82
2023/03/14 10:10:27;;;;;;;0.90;0.45;;;12.20;57.10;;;;;;5003546;28;20046;-82
2023/03/14 10:13:10;;;;;;;1.35;0.60;;;12.20;57.10;;;;;;5006626;28;20158;-82
2023/03/14 10:15:39;;;;;;;2.92;0.90;;;12.10;56.80;;;;;;5001447;28;20034;-84
2023/03/14 10:18:12;;;;;;;0.98;0.40;;;12.10;56.90;;;;;;5017287;28;20078;-84
2023/03/14 10:20:40;;;;;;;;;;;12.00;56.60;;;;;;4994369;28;20241;-85
2023/03/14 10:23:12;;;;;;;0.55;0.43;;;12.00;56.60;;;;;;4991056;28;20021;-89
2023/03/14 10:25:44;;;;;;;2.03;0.40;;;11.90;56.60;;;;;;4987811;28;20829;-85
2023/03/14 10:28:37;;;;;;;1.40;0.60;;;11.90;56.60;;;;;;4980827;28;20087;-84
2023/03/14 10:31:06;;;;;;;0.47;0.40;;;12.00;56.60;;;;;;4988439;28;20030;-83
2023/03/14 10:33:35;;;;;;;0.95;0.73;;;12.10;56.70;;;;;;4995774;28;20101;-86
2023/03/14 10:36:16;;;;;;;0.73;0.40;;;12.30;56.60;;;;;;4990360;28;20042;-87
2023/03/14 10:38:42;;;;;;;2.42;0.47;;;12.60;56.60;;;;;;4990687;28;20049;-87
2023/03/14 10:41:23;;;;;;;1.50;0.40;;;12.80;56.30;;;;;;4982724;28;20035;-89
2023/03/14 10:43:58;;;;;;;0.47;0.47;;;13.00;55.90;;;;;;4987254;28;20379;-87
2023/03/14 10:46:26;;;;;;;0.50;0.40;;;13.20;55.80;;;;;;4985961;28;20042;-88
2023/03/14 10:49:27;;;;;;;0.30;0.30;;;13.20;55.50;;;;;;4993068;28;20058;-90
2023/03/14 10:51:53;;;;;;;0.85;0.40;;;13.30;55.30;;;;;;4987316;28;20038;-88
2023/03/14 10:54:25;;;;;;;0.30;0.30;;;13.30;55.30;;;;;;4989397;28;20042;-90
2023/03/14 10:57:00;;;;;;;0.70;0.30;;;13.30;55.20;;;;;;4985021;28;20125;-89
2023/03/14 10:59:33;;;;;;;0.45;0.40;;;13.20;55.00;;;;;;4989270;28;20069;-89
2023/03/14 11:02:37;;;;;;;0.75;0.40;;;13.30;55.30;;;;;;4983429;28;20062;-86
2023/03/14 11:05:04;;;;;;;5.70;0.82;;;13.40;55.30;;;;;;4988161;28;20591;-88
2023/03/14 11:07:40;;;;;;;1.60;0.30;;;13.50;55.50;;;;;;4990907;28;20037;-89
2023/03/14 11:10:24;;;;;;;0.57;0.30;;;13.60;55.30;;;;;;4987933;28;20046;-85
2023/03/14 11:13:02;;;;;;;1.08;0.40;;;13.80;55.30;;;;;;5002890;28;20038;-88
2023/03/14 11:16:02;;;;;;;1.55;0.32;;;14.00;55.10;;;;;;4987983;28;20121;-87
2023/03/14 11:18:47;;;;;;;1.80;0.47;;;14.20;54.60;;;;;;4987544;28;20056;-86
2023/03/14 11:21:41;;;;;;;0.70;0.30;;;14.20;54.20;;;;;;4980590;28;20042;-87
2023/03/14 11:24:19;;;;;;;0.82;0.28;;;14.30;54.20;;;;;;4979543;28;20051;-86
2023/03/14 11:27:09;;;;;;;0.65;0.28;;;14.30;54.00;;;;;;4978181;28;20549;-87
2023/03/14 11:29:39;;;;;;;0.35;0.30;;;14.30;53.80;;;;;;4989744;28;20064;-88
2023/03/14 11:32:32;;;;;;;1.15;0.60;;;14.20;53.70;;;;;;4986767;28;20045;-84
2023/03/14 11:35:02;;;;;;;1.17;0.40;;;14.20;53.40;;;;;;4981539;28;20114;-87
2023/03/14 11:37:33;;;;;;;2.40;0.50;;;14.20;53.50;;;;;;4982294;28;20026;-85
2023/03/14 11:40:23;;;;;;;0.82;0.35;;;14.10;53.30;;;;;;4986550;28;20230;-87
2023/03/14 11:43:12;;;;;;;0.52;0.30;;;14.00;52.90;;;;;;4967828;28;20055;-87
2023/03/14 11:45:41;;;;;;;1.50;0.50;;;13.90;52.80;;;;;;4975636;28;20030;-87
2023/03/14 11:48:16;;;;;;;0.68;0.40;;;13.80;53.10;;;;;;4991124;28;20509;-88
2023/03/14 11:50:43;;;;;;;1.23;0.50;;;13.80;53.20;;;;;;4981434;28;20156;-88
2023/03/14 11:53:36;;;;;;;0.50;0.35;;;13.80;53.10;;;;;;4988285;28;20053;-89
2023/03/14 11:56:02;;;;;;;2.65;0.93;;;13.80;52.80;;;;;;4992375;28;20122;-91
2023/03/14 11:58:44;;;;;;;6.97;2.38;;;13.70;53.10;;;;;;4995445;28;20034;-90
2023/03/14 12:01:13;;;;;;;3.87;1.63;;;13.80;54.50;;;;;;4989720;28;20068;-89
2023/03/14 12:03:45;;;;;;;3.08;0.98;;;13.80;55.00;;;;;;4993874;28;20549;-86
2023/03/14 12:06:51;;;;;;;2.30;1.00;;;13.80;55.40;;;;;;4985806;28;20043;-87
2023/03/14 12:09:21;;;;;;;2.83;1.00;;;13.90;55.90;;;;;;4981803;28;20284;-91
2023/03/14 12:11:59;;;;;;;1.13;0.70;;;13.90;56.00;;;;;;4992313;28;20041;-85
2023/03/14 12:14:35;;;;;;;3.25;0.75;;;13.90;56.30;;;;;;4988112;28;20042;-86
2023/03/14 12:17:08;;;;;;;1.27;0.70;;;13.90;56.40;;;;;;4979701;28;20037;-85
2023/03/14 12:19:38;;;;;;;;;;;13.90;56.30;;;;;;4988622;28;20098;-87
2023/03/14 12:22:27;;;;;;;1.83;0.40;;;14.00;56.40;;;;;;4988388;28;19921;-88
2023/03/14 12:25:15;;;;;;;0.80;0.45;;;14.00;56.40;;;;;;4972860;28;20417;-90
2023/03/14 12:27:57;;;;;;;1.15;0.55;;;14.00;56.30;;;;;;4986185;28;20752;-89
2023/03/14 12:30:27;;;;;;;2.42;0.55;;;14.00;56.40;;;;;;4993532;28;20058;-91
2023/03/14 12:33:12;;;;;;;1.55;0.40;;;14.00;56.40;;;;;;4994827;28;20064;-89
2023/03/14 12:36:02;;;;;;;1.30;0.63;;;14.00;56.40;;;;;;4982879;28;20034;-86
2023/03/14 12:38:52;;;;;;;0.55;0.30;;;14.10;56.70;;;;;;4985787;28;20038;-86
2023/03/14 12:41:44;;;;;;;1.20;0.52;;;14.10;56.80;;;;;;4981208;28;20052;-88
2023/03/14 12:44:29;;;;;;;1.45;0.75;;;14.20;56.90;;;;;;4983671;28;20128;-89
2023/03/14 12:47:00;;;;;;;1.67;0.52;;;14.20;56.80;;;;;;4988306;28;20126;-83
2023/03/14 12:49:32;;;;;;;1.27;0.55;;;14.30;56.90;;;;;;4992669;28;20385;-85
2023/03/14 12:52:02;;;;;;;1.75;0.70;;;14.30;56.90;;;;;;4990483;28;20042;-87
2023/03/14 12:55:16;;;;;;;1.88;0.65;;;14.40;57.00;;;;;;4970039;28;20038;-84
2023/03/14 12:58:10;;;;;;;1.45;0.80;;;14.50;57.00;;;;;;4986522;28;20046;-86
2023/03/14 13:00:40;;;;;;;2.22;0.90;;;14.60;57.00;;;;;;4995844;28;20057;-87
2023/03/14 13:03:22;;;;;;;1.65;0.65;;;14.60;56.80;;;;;;4993813;28;20438;-88
2023/03/14 13:05:57;;;;;;;0.88;0.65;;;14.70;56.80;;;;;;4989585;28;20034;-83
2023/03/14 13:08:41;;;;;;;4.85;1.50;;;14.80;56.80;;;;;;4995900;28;20026;-88
2023/03/14 13:11:19;;;;;;;1.83;0.70;;;14.90;56.60;;;;;;4969249;28;20533;-87
2023/03/14 13:14:00;;;;;;;2.28;0.70;;;15.00;56.60;;;;;;4986468;28;20030;-86
2023/03/14 13:16:29;;;;;;;1.00;0.63;;;15.10;56.60;;;;;;4985396;28;20113;-88